Aeroporto :
LOGIN :

Iscrizione | Disclaimer

   EN    FR    IT 

 










Sommario :    VFR   VFR Marginale   IFR   IFR Intensivo   IFR Molto Intensivo
Visibilità : 
Base nubi : 
>= 8 km
>= 3000ft
5 / 8 km
1000 / 3000 ft
1500m / 5 km
500 / 1000 ft
800 / 1500m
200 / 500 ft
< 800m
< 200 ft
Simboli :   Temporali  Nebbia  Neve Forte  Precipitazioni Forti  Vento > 20 kt
SIGMETs :   Varie  Temporali  Ghiacco  Turbolenza  Onda orograficha  Ceneri Vulcaniche






- Altitudine del aeroporto : 112 ft
- Codice IATA : KIR


EIKY - Kerry Farranfore

ULTIMO METAR :
  • 231200Z 19012KT 160V230 9999 RA BKN020 12/11 Q1004

METARs OBSOLETI :
  • 231130Z 20014KT 9999 RA BKN021 OVC041 13/11 Q1005
  • 231100Z 19007KT 110V230 9999 -RA FEW016 SCT019 OVC024 13/10 Q1005 RESHRA
  • 231030Z 19011KT 9999 -RA BKN024 12/10 Q1006 RERA
  • 231000Z 18015KT 9999 -RA BKN020 12/10 Q1006

TAF TAF EIKY
Valido dal 23 a 12 ore il 23 a 21 ore UTC


231100Z 2312/2321 19015KT 9999 -RA BKN012
TEMPO 2312/2317 19017G28KT 4000 BKN007
BECMG 2317/2319 23008KT SCT012 BKN025



MetMap, La meteo Aeronautica in un colpo d'occhio ! - Copyright ORBIFLY Dicembre 2007 - Disclaimer

ORBIFLY MET'MAP TEAM :

Programmazione e sviluppo : Alexandra Zaïnal
Concezione e sviluppo : Baudouin d'Aumeries
Co-Programmazione e sviluppo : Marc-Olivier Méhu
Supporto tecnico e logistico : Manuel Goepfert
Aiuto per la traduzione : Arnaldo La Scala

Contatto : metmap@orbifly.com




FONTI E CREDITI :

   NOAA